Terminal Aerodrome Forecast
Issued by NWS

Home | Current Version | Previous Version | Text Only | Print | Product List | Glossary On
Versions: 1 2 3 4 5 6 7 8 9 10 11 12 13
000
FTUS42 KGSP 310529
TAFGMU
TAF
KGMU 310529Z 3106/0106 35006KT P6SM SKC
     FM311500 26003KT P6SM FEW300
     FM312000 22007KT P6SM SCT140
     FM010100 22003KT P6SM BKN120=

USA.gov is the U.S. government's official web portal to all federal, state and local government web resources and services.